Weather at Koro Island Airport

Public forecast

Using degrees Celsius for public forecast. Weather courtesy of forecast.io.

Closest aviation weather report (METAR) to Koro Island Airport

Report is more than 2 hours old.

Closest report is Savusavu Airport, 32.9 nm (61.0 km) N. Retrieved 2021/04/20 15:00 UTC (2 hours ago):

NFNS 201500Z AUTO 34003KT //// ////// ///// Q////

Closest aviation forecast (TAF) to Koro Island Airport

Closest forecast is Nausori International Airport, 64.7 nm (119.9 km) SW. Retrieved 2021/04/20 12:13 UTC (5 hours ago):

TAF NFNA 201110Z 2012/2112 11008KT 9999 BKN018 PROB30 TEMPO 2012/2018 5000 SHRA BKN015